createdAt,value
2019-02-16T00:01:01.795Z,4.90
2019-02-16T00:03:30.725Z,4.80
2019-02-16T00:05:59.664Z,5.03
2019-02-16T00:08:28.582Z,4.70
2019-02-16T00:10:57.598Z,4.40
2019-02-16T00:13:26.592Z,4.60
2019-02-16T00:15:55.436Z,4.37
2019-02-16T00:18:24.317Z,4.50
2019-02-16T00:20:53.324Z,4.10
2019-02-16T00:23:22.161Z,4.97
2019-02-16T00:25:51.041Z,5.03
2019-02-16T00:28:20.001Z,4.90
2019-02-16T00:30:49.047Z,4.37
2019-02-16T00:33:17.989Z,4.80
2019-02-16T00:35:53.670Z,4.87
2019-02-16T00:38:22.557Z,4.60
2019-02-16T00:40:51.558Z,4.15
2019-02-16T00:43:20.435Z,4.80
2019-02-16T00:45:49.473Z,5.03
2019-02-16T00:48:20.646Z,4.90
2019-02-16T00:50:49.577Z,4.37
2019-02-16T00:53:18.514Z,4.87
2019-02-16T00:55:47.501Z,4.78
2019-02-16T00:58:16.379Z,5.70
2019-02-16T01:00:45.293Z,4.85
2019-02-16T01:03:14.293Z,4.83
2019-02-16T01:05:43.326Z,4.65
2019-02-16T01:08:12.258Z,4.75
2019-02-16T01:10:41.186Z,5.05
2019-02-16T01:13:10.096Z,4.35
2019-02-16T01:15:40.205Z,4.62
2019-02-16T01:18:09.371Z,4.00
2019-02-16T01:20:38.410Z,4.80
2019-02-16T01:23:07.408Z,5.08
2019-02-16T01:25:36.361Z,5.08
2019-02-16T01:28:05.366Z,5.10
2019-02-16T01:30:34.306Z,5.05
2019-02-16T01:33:03.224Z,4.60
2019-02-16T01:35:32.157Z,5.10
2019-02-16T01:38:01.017Z,5.45
2019-02-16T01:40:29.942Z,5.03
2019-02-16T01:42:58.770Z,5.37
2019-02-16T01:45:27.717Z,4.95
2019-02-16T01:47:56.661Z,5.70
2019-02-16T01:50:25.707Z,6.17
2019-02-16T01:52:54.701Z,5.65
2019-02-16T01:55:23.616Z,5.05
2019-02-16T01:57:52.529Z,5.53
2019-02-16T02:00:21.526Z,5.78
2019-02-16T02:02:56.448Z,4.78
2019-02-16T02:05:25.387Z,5.62
2019-02-16T02:07:54.323Z,5.90
2019-02-16T02:10:23.245Z,5.92
2019-02-16T02:12:52.105Z,5.65
2019-02-16T02:15:21.117Z,5.70
2019-02-16T02:17:50.054Z,6.00
2019-02-16T02:20:19.297Z,5.08
2019-02-16T02:22:48.314Z,5.50
2019-02-16T02:25:17.225Z,5.42
2019-02-16T02:27:46.096Z,5.50
2019-02-16T02:30:15.114Z,5.80
2019-02-16T02:32:44.113Z,5.20
2019-02-16T02:35:13.282Z,5.50
2019-02-16T02:37:42.485Z,6.08
2019-02-16T02:40:11.470Z,5.20
2019-02-16T02:42:40.402Z,5.97
2019-02-16T02:45:09.993Z,5.87
2019-02-16T02:47:38.988Z,4.47
2019-02-16T02:50:08.004Z,5.62
2019-02-16T02:52:37.091Z,5.65
2019-02-16T02:55:06.678Z,5.53
2019-02-16T02:57:35.593Z,5.47
2019-02-16T03:00:05.140Z,5.25
2019-02-16T03:02:33.997Z,5.20
2019-02-16T03:05:02.927Z,5.50
2019-02-16T03:07:31.762Z,4.90
2019-02-16T03:10:00.831Z,4.72
2019-02-16T03:12:29.880Z,6.08
2019-02-16T03:14:58.909Z,5.97
2019-02-16T03:17:27.863Z,5.28
2019-02-16T03:19:56.798Z,5.60
2019-02-16T03:22:46.426Z,5.40
2019-02-16T03:25:15.363Z,6.20
2019-02-16T03:28:18.263Z,5.05
2019-02-16T03:31:25.553Z,5.40
2019-02-16T03:34:14.839Z,4.80
2019-02-16T03:37:29.550Z,5.87
2019-02-16T03:39:58.488Z,5.22
2019-02-16T03:42:27.401Z,5.20
2019-02-16T03:44:56.245Z,4.75
2019-02-16T03:47:25.113Z,5.03
2019-02-16T03:49:54.048Z,4.97
2019-02-16T03:52:23.312Z,5.22
2019-02-16T03:54:52.202Z,5.55
2019-02-16T03:57:21.167Z,5.45
2019-02-16T03:59:50.069Z,5.90
2019-02-16T04:02:18.994Z,5.70
2019-02-16T04:04:47.982Z,5.42
2019-02-16T04:07:16.912Z,5.53
2019-02-16T04:09:45.954Z,6.58
2019-02-16T04:12:14.812Z,5.70
2019-02-16T04:14:43.639Z,5.45
2019-02-16T04:17:12.491Z,5.33
2019-02-16T04:19:41.388Z,5.47
2019-02-16T04:22:10.192Z,5.30
2019-02-16T04:24:39.104Z,5.25
2019-02-16T04:27:07.981Z,5.28
2019-02-16T04:29:36.810Z,5.58
2019-02-16T04:32:05.615Z,6.30
2019-02-16T04:34:34.511Z,4.12
2019-02-16T04:37:03.458Z,5.92
2019-02-16T04:39:32.354Z,5.20
2019-02-16T04:42:01.294Z,4.42
2019-02-16T04:44:30.200Z,4.92
2019-02-16T04:46:59.028Z,4.80
2019-02-16T04:49:27.880Z,4.50
2019-02-16T04:51:56.706Z,4.70
2019-02-16T04:54:25.583Z,5.70
2019-02-16T04:56:54.615Z,6.92
2019-02-16T04:59:23.421Z,7.15
2019-02-16T05:01:52.300Z,6.80
2019-02-16T05:04:21.312Z,6.47
2019-02-16T05:06:50.113Z,6.10
2019-02-16T05:09:19.094Z,6.45
2019-02-16T05:11:50.077Z,6.17
2019-02-16T05:14:18.904Z,6.40
2019-02-16T05:16:47.732Z,5.87
2019-02-16T05:19:19.702Z,6.53
2019-02-16T05:21:48.610Z,6.05
2019-02-16T05:24:17.469Z,7.37
2019-02-16T05:26:47.382Z,7.17
2019-02-16T05:29:16.284Z,7.08
2019-02-16T05:31:45.244Z,7.78
2019-02-16T05:34:14.152Z,6.30
2019-02-16T05:36:43.306Z,6.72
2019-02-16T05:39:13.172Z,7.97
2019-02-16T05:41:42.180Z,6.60
2019-02-16T05:44:11.069Z,6.67
2019-02-16T05:46:39.970Z,6.97
2019-02-16T05:49:09.876Z,6.92
2019-02-16T05:51:39.796Z,6.78
2019-02-16T05:54:08.673Z,7.25
2019-02-16T05:56:37.586Z,7.75
2019-02-16T05:59:08.405Z,7.47
2019-02-16T06:01:39.507Z,7.17
2019-02-16T06:04:09.374Z,6.72
2019-02-16T06:06:38.247Z,6.33
2019-02-16T06:09:08.176Z,6.65
2019-02-16T06:11:37.056Z,6.58
2019-02-16T06:14:07.981Z,6.05
2019-02-16T06:16:37.148Z,7.22
2019-02-16T06:19:06.064Z,6.83
2019-02-16T06:21:35.089Z,6.90
2019-02-16T06:24:04.987Z,7.50
2019-02-16T06:26:33.980Z,6.00
2019-02-16T06:29:02.935Z,7.50
2019-02-16T06:31:31.782Z,7.25
2019-02-16T06:34:00.672Z,6.45
2019-02-16T06:36:38.794Z,7.58
2019-02-16T06:39:07.772Z,6.20
2019-02-16T06:41:36.718Z,6.55
2019-02-16T06:44:05.721Z,7.30
2019-02-16T06:46:34.655Z,6.85
2019-02-16T06:49:04.690Z,7.08
2019-02-16T06:51:33.602Z,7.35
2019-02-16T06:54:06.793Z,7.70
2019-02-16T06:57:03.858Z,7.60
2019-02-16T06:59:32.850Z,7.53
2019-02-16T07:02:01.773Z,7.90
2019-02-16T07:04:31.816Z,7.55
2019-02-16T07:07:00.693Z,7.37
2019-02-16T07:09:29.656Z,7.30
2019-02-16T07:11:58.476Z,7.87
2019-02-16T07:14:27.433Z,7.90
2019-02-16T07:17:15.181Z,7.15
2019-02-16T07:19:50.900Z,6.60
2019-02-16T07:22:19.914Z,7.30
2019-02-16T07:24:48.941Z,7.75
2019-02-16T07:27:17.813Z,7.75
2019-02-16T07:29:47.726Z,7.42
2019-02-16T07:32:16.621Z,7.37
2019-02-16T07:34:52.401Z,9.10
2019-02-16T07:37:21.308Z,8.10
2019-02-16T07:39:50.128Z,8.53
2019-02-16T07:42:19.198Z,7.40
2019-02-16T07:45:01.425Z,7.72
2019-02-16T07:47:38.591Z,8.95
2019-02-16T07:50:44.578Z,8.05
2019-02-16T07:53:18.827Z,8.03
2019-02-16T07:56:01.614Z,7.62
2019-02-16T07:58:42.634Z,7.95
2019-02-16T08:01:33.472Z,8.15
2019-02-16T08:04:20.590Z,8.08
2019-02-16T08:07:08.493Z,8.50
2019-02-16T08:10:02.239Z,8.23
2019-02-16T08:12:38.407Z,8.68
2019-02-16T08:15:14.892Z,8.65
2019-02-16T08:18:03.597Z,8.70
2019-02-16T08:20:41.440Z,8.40
2019-02-16T08:23:27.505Z,9.65
2019-02-16T08:26:24.438Z,9.28
2019-02-16T08:29:21.317Z,8.78
2019-02-16T08:32:07.800Z,8.73
2019-02-16T08:34:54.193Z,8.00
2019-02-16T08:37:48.365Z,8.48
2019-02-16T08:40:29.219Z,7.75
2019-02-16T08:43:23.090Z,9.05
2019-02-16T08:46:01.624Z,7.90
2019-02-16T08:48:52.668Z,7.85
2019-02-16T08:51:44.541Z,8.48
2019-02-16T08:54:44.597Z,7.95
2019-02-16T08:57:22.948Z,8.35
2019-02-16T09:00:17.054Z,9.40
2019-02-16T09:02:52.876Z,9.03
2019-02-16T09:05:59.242Z,9.85
2019-02-16T09:08:38.468Z,10.03
2019-02-16T09:11:31.508Z,8.80
2019-02-16T09:14:20.709Z,10.35
2019-02-16T09:17:09.999Z,10.58
2019-02-16T09:19:56.508Z,10.40
2019-02-16T09:22:34.525Z,9.38
2019-02-16T09:25:31.537Z,10.00
2019-02-16T09:28:22.487Z,9.93
2019-02-16T09:31:16.813Z,9.13
2019-02-16T09:34:17.242Z,8.65
2019-02-16T09:37:08.176Z,9.35
2019-02-16T09:40:02.176Z,9.53
2019-02-16T09:42:41.196Z,10.15
2019-02-16T09:45:32.275Z,9.73
2019-02-16T09:48:23.024Z,10.38
2019-02-16T09:50:59.766Z,10.40
2019-02-16T09:54:08.349Z,9.93
2019-02-16T09:56:43.935Z,10.50
2019-02-16T09:59:19.616Z,8.83
2019-02-16T10:02:10.629Z,10.58
2019-02-16T10:04:57.031Z,9.20
2019-02-16T10:07:32.976Z,10.18
2019-02-16T10:10:23.731Z,9.90
2019-02-16T10:13:15.476Z,9.70
2019-02-16T10:15:58.076Z,9.68
2019-02-16T10:18:51.869Z,9.78
2019-02-16T10:21:51.951Z,10.85
2019-02-16T10:24:38.549Z,9.73
2019-02-16T10:27:36.773Z,9.45
2019-02-16T10:30:26.552Z,11.00
2019-02-16T10:33:12.929Z,9.80
2019-02-16T10:35:59.823Z,9.95
2019-02-16T10:38:50.038Z,8.93
2019-02-16T10:41:50.464Z,9.65
2019-02-16T10:44:41.676Z,9.65
2019-02-16T10:47:20.036Z,8.90
2019-02-16T10:49:59.253Z,8.60
2019-02-16T10:52:47.600Z,8.50
2019-02-16T10:55:34.126Z,8.00
2019-02-16T10:58:40.123Z,7.80
2019-02-16T11:01:31.020Z,9.55
2019-02-16T11:04:21.546Z,7.87
2019-02-16T11:07:07.468Z,8.63
2019-02-16T11:09:56.510Z,8.23
2019-02-16T11:12:35.760Z,8.65
2019-02-16T11:15:18.153Z,8.07
2019-02-16T11:18:03.424Z,7.30
2019-02-16T11:20:54.174Z,8.10
2019-02-16T11:23:51.097Z,7.83
2019-02-16T11:26:31.040Z,9.07
2019-02-16T11:29:13.624Z,8.63
2019-02-16T11:31:52.585Z,7.80
2019-02-16T11:34:43.571Z,8.27
2019-02-16T11:37:20.452Z,7.90
2019-02-16T11:39:55.470Z,7.60
2019-02-16T11:42:35.546Z,7.47
2019-02-16T11:45:22.653Z,7.63
2019-02-16T11:48:14.475Z,8.53
2019-02-16T11:50:55.562Z,8.93
2019-02-16T11:53:52.619Z,8.60
2019-02-16T11:56:52.742Z,9.37
2019-02-16T11:59:43.500Z,9.23
2019-02-16T12:02:39.244Z,9.80
2019-02-16T12:05:24.839Z,8.97
2019-02-16T12:08:03.575Z,9.33
2019-02-16T12:10:51.331Z,9.70
2019-02-16T12:13:54.717Z,9.37
2019-02-16T12:16:41.195Z,9.50
2019-02-16T12:19:17.558Z,8.57
2019-02-16T12:22:04.394Z,8.83
2019-02-16T12:25:04.818Z,8.40
2019-02-16T12:27:39.412Z,9.77
2019-02-16T12:30:21.876Z,9.70
2019-02-16T12:33:12.949Z,8.73
2019-02-16T12:36:13.071Z,8.47
2019-02-16T12:38:54.464Z,9.27
2019-02-16T12:41:42.362Z,8.53
2019-02-16T12:44:21.618Z,9.00
2019-02-16T12:47:08.737Z,9.40
2019-02-16T12:49:53.634Z,9.20
2019-02-16T12:52:47.699Z,9.27
2019-02-16T12:55:47.717Z,9.60
2019-02-16T12:58:29.357Z,9.63
2019-02-16T13:01:29.305Z,10.47
2019-02-16T13:04:18.950Z,8.97
2019-02-16T13:07:17.278Z,7.70
2019-02-16T13:10:14.559Z,7.67
2019-02-16T13:13:00.606Z,9.50
2019-02-16T13:16:01.387Z,8.50
2019-02-16T13:18:44.146Z,9.80
2019-02-16T13:21:38.749Z,9.23
2019-02-16T13:24:30.987Z,8.90
2019-02-16T13:27:24.178Z,8.57
2019-02-16T13:30:12.184Z,8.30
2019-02-16T13:32:56.622Z,8.00
2019-02-16T13:35:34.664Z,7.97
2019-02-16T13:38:25.492Z,8.47
2019-02-16T13:41:00.096Z,8.27
2019-02-16T13:43:58.677Z,8.63
2019-02-16T13:46:36.300Z,8.90
2019-02-16T13:49:11.715Z,7.90
2019-02-16T13:51:56.476Z,7.70
2019-02-16T13:54:35.702Z,8.50
2019-02-16T13:57:32.862Z,8.23
2019-02-16T14:00:24.735Z,8.20
2019-02-16T14:03:08.740Z,7.40
2019-02-16T14:06:02.782Z,8.53
2019-02-16T14:08:49.205Z,7.30
2019-02-16T14:11:24.844Z,7.63
2019-02-16T14:14:01.404Z,7.13
2019-02-16T14:16:40.106Z,7.77
2019-02-16T14:19:09.713Z,8.63
2019-02-16T14:21:38.704Z,7.97
2019-02-16T14:24:07.681Z,8.47
2019-02-16T14:26:36.568Z,7.60
2019-02-16T14:29:05.707Z,8.90
2019-02-16T14:31:38.382Z,7.47
2019-02-16T14:34:07.332Z,7.63
2019-02-16T14:36:36.331Z,7.90
2019-02-16T14:39:16.852Z,7.27
2019-02-16T14:41:45.914Z,8.60
2019-02-16T14:44:14.821Z,7.83
2019-02-16T14:46:43.697Z,8.13
2019-02-16T14:49:12.557Z,8.47
2019-02-16T14:51:41.600Z,8.50
2019-02-16T14:54:10.557Z,7.03
2019-02-16T14:56:39.525Z,7.73
2019-02-16T14:59:08.513Z,8.30
2019-02-16T15:01:37.513Z,9.20
2019-02-16T15:04:06.459Z,8.23
2019-02-16T15:06:36.579Z,7.83
2019-02-16T15:09:06.436Z,6.73
2019-02-16T15:11:36.536Z,8.17
2019-02-16T15:14:05.549Z,7.90
2019-02-16T15:16:34.527Z,7.77
2019-02-16T15:19:03.532Z,8.00
2019-02-16T15:21:33.508Z,8.37
2019-02-16T15:24:02.405Z,8.70
2019-02-16T15:26:31.234Z,9.37
2019-02-16T15:29:00.166Z,8.50
2019-02-16T15:31:29.184Z,7.80
2019-02-16T15:33:58.091Z,7.57
2019-02-16T15:36:27.033Z,7.40
2019-02-16T15:38:56.020Z,6.60
2019-02-16T15:41:24.926Z,8.30
2019-02-16T15:43:53.788Z,6.87
2019-02-16T15:46:22.841Z,7.73
2019-02-16T15:48:51.812Z,7.23
2019-02-16T15:51:20.706Z,8.10
2019-02-16T15:53:49.532Z,9.00
2019-02-16T15:56:18.535Z,8.43
2019-02-16T15:58:47.454Z,8.37
2019-02-16T16:01:16.369Z,8.90
2019-02-16T16:03:45.348Z,8.67
2019-02-16T16:06:14.306Z,7.77
2019-02-16T16:08:49.954Z,7.80
2019-02-16T16:11:29.133Z,7.83
2019-02-16T16:14:14.189Z,7.17
2019-02-16T16:17:02.298Z,8.08
2019-02-16T16:19:56.492Z,7.42
2019-02-16T16:22:46.218Z,7.80
2019-02-16T16:25:32.242Z,7.85
2019-02-16T16:28:24.147Z,6.80
2019-02-16T16:31:12.012Z,8.33
2019-02-16T16:34:11.085Z,7.30
2019-02-16T16:37:00.073Z,7.22
2019-02-16T16:39:48.053Z,8.05
2019-02-16T16:42:33.731Z,8.88
2019-02-16T16:45:09.572Z,8.40
2019-02-16T16:48:12.677Z,7.90
2019-02-16T16:51:18.041Z,8.18
2019-02-16T16:54:19.206Z,7.28
2019-02-16T16:57:13.699Z,8.50
2019-02-16T17:00:05.409Z,8.33
2019-02-16T17:02:52.392Z,6.97
2019-02-16T17:05:39.397Z,7.85
2019-02-16T17:08:33.560Z,7.90
2019-02-16T17:11:20.551Z,8.90
2019-02-16T17:14:23.938Z,8.03
2019-02-16T17:17:10.617Z,8.80
2019-02-16T17:20:01.428Z,8.30
2019-02-16T17:22:48.861Z,9.03
2019-02-16T17:25:35.065Z,8.78
2019-02-16T17:28:22.246Z,9.75
2019-02-16T17:31:10.294Z,12.45
2019-02-16T17:33:46.772Z,9.75
2019-02-16T17:36:25.622Z,10.68
2019-02-16T17:39:10.196Z,10.82
2019-02-16T17:41:57.189Z,10.72
2019-02-16T17:44:43.926Z,11.90
2019-02-16T17:47:24.050Z,11.08
2019-02-16T17:50:11.888Z,9.55
2019-02-16T17:53:12.279Z,11.25
2019-02-16T17:56:01.349Z,10.32
2019-02-16T17:58:38.232Z,10.30
2019-02-16T18:01:25.139Z,10.30
2019-02-16T18:04:34.501Z,9.40
2019-02-16T18:07:21.816Z,9.63
2019-02-16T18:10:28.097Z,9.75
2019-02-16T18:13:20.750Z,8.73
2019-02-16T18:16:08.863Z,8.20
2019-02-16T18:18:58.389Z,9.08
2019-02-16T18:21:35.677Z,9.38
2019-02-16T18:24:13.317Z,9.40
2019-02-16T18:26:59.764Z,9.95
2019-02-16T18:29:48.162Z,8.85
2019-02-16T18:32:34.956Z,8.93
2019-02-16T18:35:23.893Z,10.40
2019-02-16T18:38:10.452Z,9.93
2019-02-16T18:41:01.449Z,10.32
2019-02-16T18:43:53.256Z,11.55
2019-02-16T18:46:44.144Z,8.68
2019-02-16T18:49:34.834Z,9.13
2019-02-16T18:52:16.956Z,8.30
2019-02-16T18:54:59.053Z,8.48
2019-02-16T18:57:47.121Z,8.68
2019-02-16T19:00:29.360Z,7.85
2019-02-16T19:03:17.336Z,8.78
2019-02-16T19:06:06.633Z,8.78
2019-02-16T19:08:58.805Z,9.53
2019-02-16T19:11:43.967Z,10.32
2019-02-16T19:14:22.078Z,10.72
2019-02-16T19:17:01.541Z,10.43
2019-02-16T19:19:49.609Z,11.10
2019-02-16T19:22:30.118Z,11.95
2019-02-16T19:25:28.101Z,11.63
2019-02-16T19:28:19.868Z,11.75
2019-02-16T19:31:10.933Z,11.00
2019-02-16T19:34:01.843Z,10.93
2019-02-16T19:36:45.157Z,12.05
2019-02-16T19:39:22.329Z,13.03
2019-02-16T19:41:59.889Z,11.85
2019-02-16T19:44:56.990Z,14.00
2019-02-16T19:47:43.992Z,12.53
2019-02-16T19:50:39.230Z,10.95
2019-02-16T19:53:33.525Z,12.55
2019-02-16T19:56:14.554Z,11.93
2019-02-16T19:59:04.150Z,11.05
2019-02-16T20:01:52.229Z,9.93
2019-02-16T20:04:50.334Z,10.68
2019-02-16T20:07:47.559Z,11.03
2019-02-16T20:10:41.754Z,11.28
2019-02-16T20:13:45.109Z,12.95
2019-02-16T20:16:51.409Z,9.93
2019-02-16T20:19:40.416Z,11.93
2019-02-16T20:22:33.860Z,11.83
2019-02-16T20:25:40.150Z,10.50
2019-02-16T20:28:26.724Z,12.07
2019-02-16T20:31:23.769Z,11.97
2019-02-16T20:33:59.914Z,12.07
2019-02-16T20:36:33.578Z,11.90
2019-02-16T20:39:20.631Z,11.30
2019-02-16T20:42:20.848Z,13.43
2019-02-16T20:45:05.274Z,16.50
2019-02-16T20:47:51.977Z,19.17
2019-02-16T20:50:55.355Z,16.15
2019-02-16T20:53:49.212Z,17.27
2019-02-16T20:56:40.783Z,18.37
2019-02-16T20:59:31.653Z,16.80
2019-02-16T21:02:22.473Z,14.87
2019-02-16T21:05:12.158Z,14.60
2019-02-16T21:07:54.872Z,14.10
2019-02-16T21:10:42.781Z,13.18
2019-02-16T21:13:16.382Z,13.48
2019-02-16T21:15:52.460Z,12.93
2019-02-16T21:18:49.416Z,12.47
2019-02-16T21:21:43.330Z,12.70
2019-02-16T21:24:26.673Z,12.65
2019-02-16T21:27:03.384Z,12.35
2019-02-16T21:30:03.578Z,11.30
2019-02-16T21:32:40.293Z,12.20
2019-02-16T21:35:15.740Z,10.88
2019-02-16T21:38:09.913Z,11.03
2019-02-16T21:40:52.869Z,10.05
2019-02-16T21:43:39.598Z,11.83
2019-02-16T21:46:20.304Z,9.48
2019-02-16T21:49:15.249Z,9.98
2019-02-16T21:51:54.549Z,9.03
2019-02-16T21:54:39.641Z,9.28
2019-02-16T21:57:34.757Z,9.93
2019-02-16T22:00:16.033Z,10.08
2019-02-16T22:03:19.369Z,10.28
2019-02-16T22:06:01.943Z,10.23
2019-02-16T22:08:53.417Z,11.30
2019-02-16T22:11:31.900Z,12.80
2019-02-16T22:14:00.853Z,11.50
2019-02-16T22:16:29.886Z,11.65
2019-02-16T22:18:58.798Z,12.75
2019-02-16T22:21:27.882Z,11.85
2019-02-16T22:23:56.960Z,10.60
2019-02-16T22:26:26.107Z,12.20
2019-02-16T22:28:55.029Z,12.43
2019-02-16T22:31:24.140Z,12.05
2019-02-16T22:33:53.066Z,12.15
2019-02-16T22:36:22.961Z,11.22
2019-02-16T22:38:51.937Z,11.50
2019-02-16T22:41:20.866Z,10.28
2019-02-16T22:43:49.901Z,10.30
2019-02-16T22:46:18.914Z,10.00
2019-02-16T22:48:47.915Z,10.20
2019-02-16T22:51:16.908Z,10.63
2019-02-16T22:53:45.902Z,10.30
2019-02-16T22:56:14.907Z,12.10
2019-02-16T22:58:43.798Z,11.12
2019-02-16T23:01:12.766Z,11.20
2019-02-16T23:03:41.767Z,12.00
2019-02-16T23:06:10.889Z,12.25
2019-02-16T23:08:39.870Z,12.07
2019-02-16T23:11:08.924Z,11.22
2019-02-16T23:13:37.932Z,11.75
2019-02-16T23:16:07.002Z,12.88
2019-02-16T23:18:35.939Z,11.22
2019-02-16T23:21:05.014Z,12.07
2019-02-16T23:23:34.027Z,12.20
2019-02-16T23:26:02.989Z,12.20
2019-02-16T23:28:38.684Z,12.20
2019-02-16T23:31:02.615Z,12.65
2019-02-16T23:33:31.637Z,12.95
2019-02-16T23:36:00.584Z,11.75
2019-02-16T23:38:29.418Z,12.40
2019-02-16T23:40:58.382Z,10.32
2019-02-16T23:43:27.312Z,12.63
2019-02-16T23:45:56.334Z,13.22
2019-02-16T23:48:25.256Z,13.10
2019-02-16T23:50:54.252Z,12.50
2019-02-16T23:53:23.165Z,12.73
2019-02-16T23:55:52.053Z,12.55
2019-02-16T23:58:21.029Z,12.60
